Time;durP1;ratioP1;P1;durP2;ratioP2;P2;SDS_P1;SDS_P2;PMS_P1;PMS_P2;Temp;Humidity;BMP_temperature;BMP_pressure;BME280_temperature;BME280_humidity;BME280_pressure;Samples;Min_cycle;Max_cycle;Signal;HPM_P1;HPM_P2
2023/01/09 00:01:48;;;;;;;6.70;3.30;;;4.90;99.90;;;3.28;100.00;98817.94;5004975;28;20120;-75
2023/01/09 00:04:15;;;;;;;7.78;3.25;;;4.90;99.90;;;3.51;100.00;98816.59;5011830;28;20076;-75
2023/01/09 00:06:42;;;;;;;5.55;3.30;;;5.10;99.90;;;3.77;100.00;98808.56;5012185;28;20033;-74
2023/01/09 00:09:09;;;;;;;5.67;2.97;;;5.30;99.90;;;3.85;100.00;98817.22;5008058;28;20069;-75
2023/01/09 00:11:36;;;;;;;8.23;4.38;;;5.40;99.90;;;3.88;100.00;98821.38;5012051;28;20297;-74
2023/01/09 00:14:03;;;;;;;6.70;2.90;;;5.50;99.90;;;4.08;100.00;98809.56;5002702;28;20129;-74
2023/01/09 00:16:29;;;;;;;4.13;2.45;;;5.60;99.90;;;4.31;100.00;98790.09;5008669;28;20572;-74
2023/01/09 00:18:55;;;;;;;4.95;2.60;;;5.80;99.90;;;4.54;100.00;98800.25;5011388;28;20121;-74
2023/01/09 00:21:21;;;;;;;6.13;2.40;;;6.00;99.90;;;4.70;100.00;98792.63;5013480;28;20034;-74
2023/01/09 00:23:47;;;;;;;4.22;2.35;;;6.20;99.90;;;4.72;100.00;98785.94;5007341;28;20057;-75
2023/01/09 00:26:17;;;;;;;4.47;1.95;;;6.30;99.90;;;4.95;100.00;98781.75;5008884;28;20093;-74
2023/01/09 00:28:48;;;;;;;3.25;1.75;;;6.40;99.90;;;5.06;100.00;98788.28;5006734;28;20068;-74
2023/01/09 00:31:16;;;;;;;4.22;1.92;;;6.50;99.90;;;5.08;100.00;98786.16;5002055;28;20038;-74
2023/01/09 00:33:51;;;;;;;3.90;2.10;;;6.60;99.90;;;5.07;100.00;98779.13;4999140;28;20058;-75
2023/01/09 00:36:17;;;;;;;3.10;1.63;;;6.60;99.90;;;5.04;100.00;98782.28;5008614;28;20043;-75
2023/01/09 00:38:42;;;;;;;4.95;1.92;;;6.60;99.90;;;4.98;100.00;98770.47;5008962;28;20063;-75
2023/01/09 00:41:16;;;;;;;4.70;1.45;;;6.60;99.90;;;5.03;100.00;98776.03;5010802;28;20041;-74
2023/01/09 00:43:48;;;;;;;3.20;1.90;;;6.60;99.90;;;5.13;100.00;98775.50;5006243;28;20049;-75
2023/01/09 00:46:15;;;;;;;3.38;1.50;;;6.70;99.90;;;5.10;100.00;98769.75;5012008;28;20506;-75
2023/01/09 00:48:46;;;;;;;2.92;1.42;;;6.70;99.90;;;5.15;100.00;98772.59;5004344;28;20057;-75
2023/01/09 00:51:12;;;;;;;2.25;1.15;;;6.70;99.90;;;5.14;100.00;98771.75;5010701;28;20042;-75
2023/01/09 00:53:42;;;;;;;2.70;1.30;;;6.70;99.90;;;5.00;100.00;98757.56;5005969;28;20049;-75
2023/01/09 00:56:14;;;;;;;2.95;1.40;;;6.70;99.90;;;5.14;100.00;98769.03;5010987;28;20042;-75
2023/01/09 00:58:40;;;;;;;3.72;1.60;;;6.70;99.90;;;5.12;100.00;98759.53;5011161;28;20092;-73
2023/01/09 01:01:05;;;;;;;2.70;1.38;;;6.70;99.90;;;5.17;100.00;98765.06;5010982;28;20050;-73
2023/01/09 01:03:31;;;;;;;2.05;1.17;;;6.70;99.90;;;5.17;100.00;98760.50;5011055;28;20165;-73
2023/01/09 01:08:41;;;;;;;3.83;1.40;;;6.80;99.90;;;5.26;100.00;98773.69;5006567;28;20131;-74
2023/01/09 01:11:09;;;;;;;2.42;1.40;;;6.80;99.90;;;5.22;100.00;98773.31;5003355;28;20038;-74
2023/01/09 01:13:37;;;;;;;2.92;1.40;;;6.80;99.90;;;5.21;100.00;98774.38;5016457;28;20042;-74
2023/01/09 01:16:04;;;;;;;;;;;6.80;99.90;;;5.22;100.00;98767.91;4999275;28;20053;-75
2023/01/09 01:18:30;;;;;;;4.70;2.42;;;6.80;99.90;;;5.16;100.00;98744.50;4996970;28;20503;-74
2023/01/09 01:20:56;;;;;;;4.10;1.95;;;6.80;99.90;;;5.20;100.00;98759.19;5008235;28;20029;-74
2023/01/09 01:23:22;;;;;;;4.38;2.00;;;6.80;99.90;;;5.25;100.00;98762.03;5010948;28;20094;-73
2023/01/09 01:25:48;;;;;;;3.80;1.50;;;6.90;99.90;;;5.30;100.00;98762.22;5000655;28;20049;-74
2023/01/09 01:28:14;;;;;;;3.33;1.20;;;6.90;99.90;;;5.38;100.00;98765.63;5008026;28;20061;-73
2023/01/09 01:30:41;;;;;;;2.22;1.23;;;6.90;99.90;;;5.47;100.00;98765.09;4995799;28;20135;-74
2023/01/09 01:33:09;;;;;;;2.65;1.30;;;7.00;99.90;;;5.56;100.00;98759.34;5004583;28;20090;-74
2023/01/09 01:35:35;;;;;;;2.33;1.52;;;7.10;99.90;;;5.63;100.00;98762.78;5008670;28;20073;-74
2023/01/09 01:38:01;;;;;;;2.38;1.20;;;7.10;99.90;;;5.50;100.00;98727.81;5007527;28;20528;-74
2023/01/09 01:40:28;;;;;;;2.28;1.40;;;7.20;99.90;;;5.69;100.00;98750.22;5010528;28;20041;-73
2023/01/09 01:42:54;;;;;;;3.25;1.30;;;7.30;99.90;;;5.71;100.00;98756.22;5003042;28;20512;-74
2023/01/09 01:45:27;;;;;;;4.97;1.48;;;7.30;99.90;;;5.66;100.00;98756.09;5010342;28;20421;-74
2023/01/09 01:48:07;;;;;;;2.80;1.38;;;7.30;99.90;;;5.58;100.00;98754.53;4993724;28;20498;-74
2023/01/09 01:50:57;;;;;;;2.28;1.27;;;7.20;99.90;;;5.49;100.00;98745.09;5002783;28;20706;-74
2023/01/09 01:53:31;;;;;;;3.60;1.50;;;7.10;99.90;;;5.47;100.00;98753.44;5008584;28;20555;-74
2023/01/09 01:56:35;;;;;;;3.33;1.50;;;7.10;99.90;;;5.41;100.00;98752.47;5009444;28;20490;-75
2023/01/09 01:59:08;;;;;;;2.90;1.40;;;7.10;99.90;;;5.35;100.00;98734.47;5007101;28;20041;-73
2023/01/09 02:01:39;;;;;;;5.43;1.67;;;7.00;99.90;;;5.38;100.00;98744.00;5016610;28;20429;-74
2023/01/09 02:04:06;;;;;;;4.00;1.67;;;7.00;99.90;;;5.30;100.00;98737.88;5004932;28;20132;-74
2023/01/09 02:06:33;;;;;;;5.03;1.65;;;6.90;99.90;;;5.31;100.00;98744.09;5006341;28;20053;-74
2023/01/09 02:09:03;;;;;;;3.60;1.90;;;7.00;99.90;;;5.25;100.00;98732.31;5013227;28;20041;-74
2023/01/09 02:11:30;;;;;;;3.20;1.52;;;6.90;99.90;;;5.25;100.00;98726.88;4999728;28;20053;-74
2023/01/09 02:13:57;;;;;;;4.32;1.85;;;6.90;99.90;;;5.35;100.00;98729.06;5010557;28;20084;-75
2023/01/09 02:17:11;;;;;;;3.27;1.80;;;6.90;99.90;;;5.37;100.00;98724.22;5016776;28;20042;-74
2023/01/09 02:20:31;;;;;;;4.45;1.80;;;7.00;99.90;;;5.36;100.00;98722.59;4993611;28;20073;-74
2023/01/09 02:23:28;;;;;;;4.32;1.50;;;6.90;99.90;;;5.39;100.00;98719.41;4999561;28;20037;-75
2023/01/09 02:26:27;;;;;;;2.22;1.30;;;6.90;99.90;;;5.36;100.00;98713.66;5021720;28;20168;-74
2023/01/09 02:29:34;;;;;;;5.05;1.40;;;6.90;99.90;;;5.29;100.00;98719.97;5008041;28;20041;-75
2023/01/09 02:32:22;;;;;;;3.67;1.90;;;6.90;99.90;;;5.30;100.00;98710.00;4998861;28;20034;-74
2023/01/09 02:35:21;;;;;;;2.85;1.40;;;6.90;99.90;;;5.26;100.00;98706.91;5004471;28;20486;-75
2023/01/09 02:38:43;;;;;;;3.92;1.63;;;6.80;99.90;;;5.28;100.00;98699.38;5002744;28;20029;-76
2023/01/09 02:41:28;;;;;;;2.67;1.65;;;6.80;99.90;;;5.23;100.00;98695.75;5010632;28;20073;-75
2023/01/09 02:44:31;;;;;;;2.17;1.48;;;6.80;99.90;;;5.26;100.00;98693.38;4998830;28;20593;-75
2023/01/09 02:47:07;;;;;;;5.00;2.10;;;6.80;99.90;;;5.24;100.00;98694.69;5004835;28;20038;-78
2023/01/09 02:49:38;;;;;;;5.45;2.03;;;6.80;99.90;;;5.24;100.00;98692.00;5015173;28;20041;-75
2023/01/09 02:52:46;;;;;;;5.03;1.90;;;6.80;99.90;;;5.21;100.00;98676.22;4998135;28;20038;-76
2023/01/09 02:55:36;;;;;;;5.20;2.10;;;6.80;99.90;;;5.21;100.00;98673.53;4999288;28;20482;-76
2023/01/09 02:58:39;;;;;;;4.20;2.15;;;6.80;99.90;;;5.18;100.00;98678.34;4997348;28;20060;-76
2023/01/09 03:01:39;;;;;;;4.93;2.35;;;6.80;99.90;;;5.23;100.00;98672.22;4999693;28;20034;-76
2023/01/09 03:04:20;;;;;;;4.00;1.77;;;6.80;99.90;;;5.20;100.00;98667.28;4999917;28;20057;-77
2023/01/09 03:07:01;;;;;;;9.45;2.50;;;6.80;99.90;;;5.18;100.00;98650.47;5004258;28;20382;-76
2023/01/09 03:09:32;;;;;;;3.70;1.90;;;6.80;99.90;;;5.14;100.00;98649.28;4998982;28;20042;-76
2023/01/09 03:12:10;;;;;;;4.13;2.60;;;6.80;99.90;;;5.12;100.00;98649.50;4996909;28;20038;-76
2023/01/09 03:14:43;;;;;;;3.42;1.98;;;6.80;99.90;;;5.16;100.00;98660.69;5015860;28;20045;-76
2023/01/09 03:17:15;;;;;;;4.50;2.10;;;6.80;99.90;;;5.11;100.00;98647.84;4996675;28;20042;-76
2023/01/09 03:19:44;;;;;;;4.47;2.22;;;6.70;99.90;;;5.04;100.00;98637.16;4996851;28;20097;-76
2023/01/09 03:22:11;;;;;;;4.22;2.33;;;6.70;99.90;;;5.11;100.00;98641.63;4996521;28;20042;-76
2023/01/09 03:24:37;;;;;;;3.95;2.50;;;6.70;99.90;;;5.03;100.00;98637.38;4996208;28;20109;-76
2023/01/09 03:27:07;;;;;;;3.75;2.28;;;6.70;99.90;;;5.08;100.00;98639.41;5002618;28;20045;-76
2023/01/09 03:29:33;;;;;;;6.78;2.72;;;6.70;99.90;;;5.16;100.00;98639.88;4996733;28;20438;-76
2023/01/09 03:31:58;;;;;;;5.20;2.83;;;6.70;99.90;;;5.15;100.00;98629.31;4995755;28;20033;-76
2023/01/09 03:34:24;;;;;;;5.85;2.53;;;6.80;99.90;;;5.16;100.00;98630.94;4996848;28;20497;-76
2023/01/09 03:36:50;;;;;;;5.00;3.13;;;6.70;99.90;;;5.24;100.00;98622.50;5004467;28;20046;-76
2023/01/09 03:39:15;;;;;;;5.60;2.67;;;6.80;99.90;;;5.26;100.00;98625.00;5011659;28;20041;-76
2023/01/09 03:41:41;;;;;;;6.13;3.25;;;6.80;99.90;;;5.08;100.00;98598.84;4996585;28;20061;-76
2023/01/09 03:44:07;;;;;;;5.82;2.75;;;6.80;99.90;;;5.23;100.00;98617.34;4995763;28;20407;-76
2023/01/09 03:46:33;;;;;;;5.10;3.15;;;6.80;99.90;;;5.21;100.00;98606.75;5008924;28;20065;-76
2023/01/09 03:48:58;;;;;;;6.93;3.80;;;6.90;99.90;;;5.22;100.00;98619.22;5003345;28;20027;-76
2023/01/09 03:51:24;;;;;;;5.80;3.20;;;6.90;99.90;;;5.26;100.00;98623.09;5015885;28;20483;-76
2023/01/09 03:53:50;;;;;;;5.97;3.63;;;6.90;99.90;;;5.23;100.00;98611.94;4994164;28;20056;-77
2023/01/09 03:56:15;;;;;;;4.75;3.00;;;6.80;99.90;;;5.26;100.00;98604.16;5010646;28;20046;-76
2023/01/09 03:58:41;;;;;;;6.60;3.92;;;6.90;99.90;;;5.21;100.00;98593.22;4995667;28;20038;-76
2023/01/09 04:01:11;;;;;;;6.43;3.63;;;6.80;99.90;;;5.25;100.00;98599.00;4995767;28;20580;-76
2023/01/09 04:03:38;;;;;;;7.82;4.03;;;6.80;99.90;;;5.21;100.00;98587.81;4997167;28;20486;-76
2023/01/09 04:06:05;;;;;;;8.38;3.85;;;6.80;99.90;;;5.29;100.00;98600.19;4995697;28;20039;-76
2023/01/09 04:08:31;;;;;;;7.07;3.97;;;6.90;99.90;;;5.23;100.00;98593.81;4995915;28;20169;-76
2023/01/09 04:10:57;;;;;;;6.80;3.88;;;6.90;99.90;;;5.22;100.00;98589.47;4995809;28;20030;-76
2023/01/09 04:13:23;;;;;;;8.07;3.80;;;6.80;99.90;;;5.31;100.00;98603.47;4995376;28;20042;-76
2023/01/09 04:15:48;;;;;;;6.35;3.75;;;6.90;99.90;;;5.28;100.00;98588.53;5010000;28;20049;-77
2023/01/09 04:18:14;;;;;;;7.20;4.18;;;6.90;99.90;;;5.29;100.00;98594.78;4995509;28;20042;-76
2023/01/09 04:20:40;;;;;;;5.88;4.05;;;6.90;99.90;;;5.24;100.00;98586.53;5007735;28;20077;-77
2023/01/09 04:23:06;;;;;;;6.30;3.75;;;6.80;99.90;;;5.27;100.00;98592.28;4995751;28;20046;-76
2023/01/09 04:25:32;;;;;;;7.20;4.00;;;6.80;99.90;;;5.25;100.00;98589.00;4995467;28;20108;-76
2023/01/09 04:27:58;;;;;;;7.72;4.15;;;6.80;99.90;;;5.21;100.00;98574.31;4994772;28;20168;-76
2023/01/09 04:30:24;;;;;;;5.95;4.07;;;6.80;99.90;;;5.23;100.00;98579.50;5010151;28;20503;-76
2023/01/09 04:32:50;;;;;;;6.65;4.03;;;6.80;99.90;;;5.33;100.00;98594.09;4994555;28;20079;-76
2023/01/09 04:35:17;;;;;;;5.95;3.85;;;6.90;99.90;;;5.30;100.00;98593.72;4994485;28;20121;-76
2023/01/09 04:37:42;;;;;;;8.65;4.20;;;6.90;99.90;;;5.22;100.00;98581.34;4994940;28;20038;-76
2023/01/09 04:40:10;;;;;;;7.82;4.35;;;6.90;99.90;;;5.26;100.00;98581.72;4994136;28;20038;-76
2023/01/09 04:42:37;;;;;;;6.72;3.95;;;6.90;99.90;;;5.30;100.00;98605.38;5007493;28;20046;-77
2023/01/09 04:45:06;;;;;;;8.18;4.28;;;6.90;99.90;;;5.29;100.00;98587.47;5004918;28;20030;-76
2023/01/09 04:47:32;;;;;;;8.15;3.80;;;6.90;99.90;;;5.31;100.00;98598.91;5016143;28;20053;-76
2023/01/09 04:49:59;;;;;;;5.68;3.35;;;6.90;99.90;;;5.35;100.00;98603.84;5007947;28;20030;-77
2023/01/09 04:52:25;;;;;;;5.20;2.92;;;6.90;99.90;;;5.31;100.00;98611.59;4995375;28;20129;-77
2023/01/09 04:54:51;;;;;;;6.40;2.58;;;6.90;99.90;;;5.18;100.00;98593.69;4994632;28;20425;-77
2023/01/09 04:57:17;;;;;;;3.97;2.00;;;6.90;99.90;;;5.31;100.00;98627.81;4995282;28;20039;-76
2023/01/09 04:59:43;;;;;;;5.63;2.25;;;6.90;99.90;;;5.27;100.00;98627.44;4992534;28;20433;-76
2023/01/09 05:02:09;;;;;;;4.43;1.70;;;6.90;99.90;;;5.28;100.00;98636.38;5005182;28;20046;-76
2023/01/09 05:04:35;;;;;;;3.35;1.70;;;6.90;99.90;;;5.19;100.00;98638.59;4996497;28;20041;-77
2023/01/09 05:07:01;;;;;;;3.67;1.35;;;6.80;99.90;;;5.18;100.00;98637.78;4994308;28;20042;-77
2023/01/09 05:09:27;;;;;;;2.08;1.10;;;6.80;99.90;;;5.10;100.00;98638.09;4994645;28;20121;-77
2023/01/09 05:11:52;;;;;;;2.58;1.20;;;6.80;99.90;;;5.16;100.00;98649.88;4993448;28;20104;-76
2023/01/09 05:14:18;;;;;;;2.13;1.20;;;6.80;99.90;;;5.11;100.00;98641.63;4990377;28;20077;-77
2023/01/09 05:16:44;;;;;;;2.17;0.90;;;6.70;99.90;;;5.11;100.00;98655.16;4994046;28;20073;-77
2023/01/09 05:19:10;;;;;;;2.50;0.80;;;6.70;99.90;;;5.01;100.00;98648.41;4993820;28;20035;-76
2023/01/09 05:21:36;;;;;;;1.13;0.70;;;6.70;99.90;;;5.01;100.00;98644.88;5007786;28;20398;-77
2023/01/09 05:24:02;;;;;;;2.28;0.80;;;6.60;99.90;;;5.01;100.00;98653.81;4997664;28;20034;-77
2023/01/09 05:26:27;;;;;;;1.65;0.63;;;6.60;99.90;;;4.97;100.00;98652.63;4995703;28;20500;-77
2023/01/09 05:28:57;;;;;;;1.23;0.60;;;6.60;99.90;;;4.97;100.00;98660.72;4994048;28;20041;-77
2023/01/09 05:31:25;;;;;;;2.88;0.70;;;6.60;99.90;;;4.94;100.00;98660.38;4993676;28;20042;-76
2023/01/09 05:33:52;;;;;;;1.67;0.50;;;6.60;99.90;;;4.97;100.00;98668.03;4993332;28;20034;-77
2023/01/09 05:36:18;;;;;;;1.42;0.65;;;6.60;99.90;;;4.96;100.00;98671.78;4993018;28;20148;-77
2023/01/09 05:38:44;;;;;;;1.02;0.55;;;6.60;99.90;;;4.94;100.00;98669.28;4994516;28;20045;-76
2023/01/09 05:41:09;;;;;;;1.25;0.50;;;6.60;99.90;;;4.90;100.00;98677.03;4993849;28;20046;-77
2023/01/09 05:43:35;;;;;;;0.80;0.57;;;6.50;99.90;;;4.80;100.00;98665.13;4994089;28;20073;-76
2023/01/09 05:46:01;;;;;;;2.05;0.70;;;6.50;99.90;;;4.89;100.00;98686.19;4993785;28;20080;-76
2023/01/09 05:48:27;;;;;;;1.95;0.70;;;6.50;99.90;;;4.89;100.00;98688.06;4998979;28;20029;-76
2023/01/09 05:50:52;;;;;;;1.88;0.90;;;6.50;99.90;;;4.93;100.00;98693.88;4993991;28;20065;-77
2023/01/09 05:53:18;;;;;;;1.95;1.00;;;6.50;99.90;;;4.90;100.00;98692.44;4994033;28;20038;-76
2023/01/09 05:55:44;;;;;;;1.50;0.63;;;6.50;99.90;;;4.94;100.00;98706.31;4994601;28;20038;-76
2023/01/09 05:58:09;;;;;;;1.77;0.98;;;6.50;99.90;;;4.88;100.00;98700.75;4994106;28;20046;-76
2023/01/09 06:00:35;;;;;;;2.65;1.30;;;6.50;99.90;;;4.87;100.00;98701.00;4997420;28;20470;-76
2023/01/09 06:03:01;;;;;;;3.20;1.30;;;6.60;99.90;;;4.92;100.00;98714.63;4993327;28;20046;-76
2023/01/09 06:05:27;;;;;;;2.63;1.40;;;6.50;99.90;;;4.95;100.00;98716.06;4993197;28;20429;-76
2023/01/09 06:07:52;;;;;;;2.97;1.55;;;6.60;99.90;;;4.94;100.00;98715.25;4993131;28;20034;-76
2023/01/09 06:10:18;;;;;;;3.63;1.70;;;6.50;99.90;;;4.95;100.00;98705.28;4993785;28;20065;-75
2023/01/09 06:12:49;;;;;;;4.05;2.05;;;6.50;99.90;;;4.93;100.00;98707.38;5006604;28;20125;-76
2023/01/09 06:15:16;;;;;;;3.22;1.92;;;6.50;99.90;;;4.92;100.00;98703.03;5008154;28;20034;-76
2023/01/09 06:17:42;;;;;;;4.93;2.20;;;6.50;99.90;;;4.86;100.00;98699.34;5001479;28;20038;-76
2023/01/09 06:20:10;;;;;;;4.10;2.10;;;6.50;99.90;;;4.88;100.00;98708.03;4993414;28;20022;-76
2023/01/09 06:22:35;;;;;;;4.47;2.27;;;6.60;99.90;;;4.93;100.00;98721.69;4995069;28;20093;-76
2023/01/09 06:25:01;;;;;;;4.78;2.30;;;6.60;99.90;;;4.89;100.00;98721.31;4993408;28;20474;-75
2023/01/09 06:27:27;;;;;;;4.13;2.42;;;6.60;99.90;;;4.91;100.00;98723.81;4997391;28;20050;-77
2023/01/09 06:29:53;;;;;;;4.25;2.25;;;6.50;99.90;;;4.93;100.00;98737.91;4993039;28;20045;-76
2023/01/09 06:32:18;;;;;;;6.85;2.67;;;6.60;99.90;;;4.87;100.00;98722.63;5000452;28;20037;-76
2023/01/09 06:34:44;;;;;;;5.35;2.63;;;6.60;99.90;;;4.75;100.00;98717.13;4998857;28;20035;-75
2023/01/09 06:37:10;;;;;;;6.25;3.70;;;6.50;99.90;;;4.85;100.00;98740.94;5008009;28;20034;-75
2023/01/09 06:39:36;;;;;;;5.50;3.10;;;6.50;99.90;;;4.76;100.00;98737.69;4993765;28;20045;-76
2023/01/09 06:42:03;;;;;;;7.05;3.40;;;6.50;99.90;;;4.80;100.00;98751.59;4992845;28;20042;-76
2023/01/09 06:44:29;;;;;;;6.43;3.90;;;6.40;99.90;;;4.72;100.00;98741.91;4975019;28;20502;-75
2023/01/09 06:46:55;;;;;;;7.68;4.15;;;6.40;99.90;;;4.72;100.00;98756.22;5008889;28;20073;-76
2023/01/09 06:49:23;;;;;;;7.43;3.80;;;6.30;99.90;;;4.69;100.00;98764.78;4997094;28;20042;-76
2023/01/09 06:51:50;;;;;;;5.55;4.00;;;6.30;99.90;;;4.66;100.00;98770.63;4997705;28;20466;-76
2023/01/09 06:54:17;;;;;;;7.10;4.57;;;6.30;99.90;;;4.59;100.00;98768.00;5004261;28;20034;-76
2023/01/09 06:56:43;;;;;;;9.65;4.22;;;6.20;99.90;;;4.52;100.00;98779.94;5000287;28;20046;-75
2023/01/09 06:59:09;;;;;;;7.35;4.40;;;6.10;99.90;;;4.35;100.00;98769.69;4997054;28;20038;-74
2023/01/09 07:01:35;;;;;;;9.88;4.50;;;6.00;99.90;;;4.38;100.00;98769.25;4996585;28;20425;-74
2023/01/09 07:04:01;;;;;;;8.45;4.68;;;6.00;99.90;;;4.35;100.00;98776.97;4996540;28;20034;-75
2023/01/09 07:06:26;;;;;;;8.18;4.47;;;5.90;99.90;;;4.25;100.00;98786.41;4996802;28;20053;-75
2023/01/09 07:08:52;;;;;;;10.13;5.10;;;5.90;99.90;;;4.22;100.00;98791.41;5010495;28;20030;-75
2023/01/09 07:11:18;;;;;;;8.57;4.82;;;5.90;99.90;;;4.09;100.00;98785.09;5002801;28;20042;-74
2023/01/09 07:13:43;;;;;;;8.45;5.45;;;5.80;99.90;;;4.06;100.00;98795.47;5011897;28;20033;-74
2023/01/09 07:16:09;;;;;;;10.18;5.20;;;5.70;99.90;;;4.02;100.00;98805.91;4995948;28;20449;-74
2023/01/09 07:18:35;;;;;;;10.60;5.50;;;5.70;99.90;;;3.91;100.00;98806.59;5011149;28;20038;-75
2023/01/09 07:21:01;;;;;;;9.82;5.25;;;5.60;99.90;;;3.91;100.00;98814.69;5003038;28;20410;-75
2023/01/09 07:23:27;;;;;;;9.82;5.15;;;5.50;99.90;;;3.85;100.00;98821.81;4996057;28;20036;-75
2023/01/09 07:25:53;;;;;;;14.95;6.18;;;5.50;99.90;;;3.81;100.00;98817.84;5000979;28;20036;-75
2023/01/09 07:28:18;;;;;;;11.38;5.72;;;5.50;99.90;;;3.74;100.00;98816.03;4997302;28;20046;-75
2023/01/09 07:30:44;;;;;;;10.65;5.50;;;5.50;99.90;;;3.82;100.00;98836.53;4996581;28;20482;-75
2023/01/09 07:33:10;;;;;;;10.30;5.20;;;5.50;99.90;;;3.85;100.00;98841.50;4995971;28;20038;-74
2023/01/09 07:35:36;;;;;;;10.43;5.55;;;5.50;99.90;;;3.69;100.00;98837.44;4996497;28;20073;-74
2023/01/09 07:38:02;;;;;;;8.95;5.95;;;5.40;99.90;;;3.74;100.00;98853.81;5006806;28;20186;-75
2023/01/09 07:40:28;;;;;;;10.43;6.00;;;5.40;99.90;;;3.68;100.00;98851.97;5013119;28;20038;-76
2023/01/09 07:42:53;;;;;;;12.20;5.53;;;5.30;99.90;;;3.61;100.00;98853.88;5007120;28;20045;-74
2023/01/09 07:45:19;;;;;;;12.48;6.30;;;5.30;99.90;;;3.69;100.00;98852.78;4996098;28;20052;-74
2023/01/09 07:47:46;;;;;;;12.57;6.70;;;5.30;99.90;;;3.68;100.00;98856.53;4996011;28;20062;-75
2023/01/09 07:50:12;;;;;;;11.02;6.28;;;5.30;99.90;;;3.64;100.00;98858.00;4995453;28;20042;-75
2023/01/09 07:52:38;;;;;;;11.73;6.90;;;5.30;99.90;;;3.73;100.00;98862.13;4994162;28;20042;-73
2023/01/09 07:55:04;;;;;;;11.30;6.78;;;5.30;99.90;;;3.66;100.00;98848.66;4992873;28;20088;-73
2023/01/09 07:57:29;;;;;;;13.00;6.82;;;5.40;99.90;;;3.69;100.00;98848.22;4992918;28;20486;-73
2023/01/09 07:59:56;;;;;;;12.82;7.95;;;5.30;99.90;;;3.65;100.00;98860.50;4993585;28;20035;-74
2023/01/09 08:02:21;;;;;;;11.73;7.25;;;5.30;99.90;;;3.70;100.00;98874.16;5001691;28;20050;-73
2023/01/09 08:04:47;;;;;;;14.82;7.10;;;5.30;99.90;;;3.69;100.00;98880.59;4994972;28;20490;-74
2023/01/09 08:07:13;;;;;;;14.68;8.15;;;5.40;99.90;;;3.65;100.00;98878.53;4995116;28;20038;-73
2023/01/09 08:09:38;;;;;;;14.15;7.15;;;5.30;99.90;;;3.64;100.00;98891.22;4995859;28;20529;-72
2023/01/09 08:12:04;;;;;;;13.48;7.75;;;5.30;99.90;;;3.72;100.00;98896.34;4993530;28;20050;-73
2023/01/09 08:14:30;;;;;;;12.55;7.78;;;5.30;99.90;;;3.58;100.00;98862.38;5000795;28;20042;-73
2023/01/09 08:16:56;;;;;;;15.95;7.10;;;5.40;99.90;;;3.85;100.00;98897.34;4994701;28;20085;-73
2023/01/09 08:19:22;;;;;;;16.58;7.43;;;5.50;99.90;;;3.87;100.00;98908.75;4996286;28;20039;-74
2023/01/09 08:21:48;;;;;;;13.02;6.70;;;5.50;99.90;;;3.92;100.00;98911.63;4995519;28;20065;-74
2023/01/09 08:24:15;;;;;;;11.65;6.47;;;5.60;99.90;;;4.07;100.00;98911.31;4995487;28;20427;-73
2023/01/09 08:26:41;;;;;;;13.48;6.25;;;5.70;99.90;;;4.20;100.00;98909.56;4994249;28;20065;-73
2023/01/09 08:29:06;;;;;;;17.65;6.35;;;5.80;99.90;;;4.32;100.00;98910.53;4993777;28;20405;-73
2023/01/09 08:31:32;;;;;;;12.15;6.40;;;5.90;99.90;;;4.42;100.00;98912.75;4995124;28;20499;-73
2023/01/09 08:33:58;;;;;;;11.75;6.18;;;6.00;99.90;;;4.50;100.00;98911.63;4995139;28;20544;-73
2023/01/09 08:36:23;;;;;;;11.77;6.07;;;6.10;99.90;;;4.59;100.00;98907.63;4994828;28;20030;-73
2023/01/09 08:38:49;;;;;;;12.20;6.43;;;6.20;99.90;;;4.59;100.00;98911.16;5010383;28;20445;-73
2023/01/09 08:47:06;;;;;;;11.82;6.45;;;6.30;99.90;;;4.72;100.00;98925.63;4999738;28;20141;-73
2023/01/09 08:49:34;;;;;;;11.75;5.97;;;6.40;99.90;;;4.82;100.00;98938.63;4995142;28;20482;-73
2023/01/09 08:52:00;;;;;;;8.98;5.35;;;6.50;99.90;;;4.94;100.00;98941.44;4977595;28;20066;-73
2023/01/09 08:54:27;;;;;;;10.20;5.85;;;6.50;99.90;;;4.95;100.00;98945.78;4997866;28;20502;-73
2023/01/09 08:56:52;;;;;;;8.57;5.63;;;6.60;99.90;;;4.96;100.00;98940.16;4993427;28;20117;-73
2023/01/09 08:59:18;;;;;;;13.60;5.35;;;6.60;99.90;;;5.04;100.00;98945.28;4994539;28;20141;-73
2023/01/09 09:01:44;;;;;;;10.55;5.40;;;6.70;99.90;;;5.10;100.00;98954.38;4994404;28;20038;-73
2023/01/09 09:04:10;;;;;;;11.52;5.53;;;6.70;99.90;;;5.08;100.00;98948.38;4994546;28;20045;-73
2023/01/09 09:06:35;;;;;;;10.95;4.68;;;6.70;99.90;;;5.12;100.00;98954.97;5007040;28;20538;-74
2023/01/09 09:09:02;;;;;;;9.32;3.63;;;6.70;99.90;;;5.09;100.00;98954.59;4999250;28;20042;-75
2023/01/09 09:11:29;;;;;;;8.35;2.85;;;6.80;99.90;;;5.14;100.00;98949.34;4993713;28;20065;-75
2023/01/09 09:13:56;;;;;;;4.90;2.20;;;6.80;99.90;;;5.25;100.00;98962.13;4995974;28;20037;-75
2023/01/09 09:16:23;;;;;;;8.40;1.88;;;6.90;99.90;;;5.46;100.00;98957.34;4993678;28;20402;-74
2023/01/09 09:18:48;;;;;;;7.33;2.10;;;7.00;99.90;;;5.53;100.00;98954.56;4997370;28;20058;-74
2023/01/09 09:21:14;;;;;;;12.82;2.45;;;7.10;99.90;;;5.58;100.00;98954.72;5006932;28;20057;-73
2023/01/09 09:23:40;;;;;;;5.68;1.80;;;7.20;99.90;;;5.50;100.00;98942.31;4993939;28;20474;-75
2023/01/09 09:26:06;;;;;;;6.07;2.10;;;7.10;99.90;;;5.45;100.00;98953.00;4994402;28;20042;-74
2023/01/09 09:28:31;;;;;;;5.88;1.73;;;7.10;99.90;;;5.60;100.00;98964.28;4990122;28;20410;-73
2023/01/09 09:30:57;;;;;;;8.70;2.05;;;7.20;99.90;;;5.66;100.00;98961.72;4993812;28;20068;-74
2023/01/09 09:33:23;;;;;;;6.88;1.80;;;7.30;99.90;;;5.85;100.00;98966.06;4993807;28;20036;-73
2023/01/09 09:35:48;;;;;;;7.53;1.70;;;7.40;99.90;;;5.86;100.00;98959.59;5003972;28;20049;-74
2023/01/09 09:38:15;;;;;;;4.53;1.60;;;7.50;99.90;;;5.97;100.00;98962.59;5009001;28;20381;-73
2023/01/09 09:44:53;;;;;;;6.43;1.65;;;7.70;99.90;;;6.16;100.00;98971.53;4994260;28;20054;-74
2023/01/09 09:47:40;;;;;;;3.83;1.58;;;7.70;99.90;;;6.13;100.00;98967.41;4994011;28;20041;-74
2023/01/09 09:50:45;;;;;;;6.25;1.48;;;7.70;99.90;;;6.16;100.00;98961.53;4993455;28;20046;-74
2023/01/09 09:53:16;;;;;;;7.85;1.65;;;7.70;99.90;;;6.23;100.00;98964.13;4993642;28;20046;-74
2023/01/09 09:55:47;;;;;;;5.28;1.30;;;7.80;99.90;;;6.35;100.00;98966.88;5007626;28;20073;-74
2023/01/09 09:58:35;;;;;;;6.97;1.83;;;7.80;99.90;;;6.50;100.00;98976.50;4994715;28;20042;-74
2023/01/09 10:01:02;;;;;;;4.90;1.40;;;8.10;99.90;;;6.44;100.00;98989.06;4997146;28;20042;-74
2023/01/09 10:03:45;;;;;;;5.00;1.40;;;8.10;99.90;;;6.50;100.00;98988.16;4994163;28;20382;-75
2023/01/09 10:06:27;;;;;;;6.35;1.38;;;8.10;99.90;;;6.55;100.00;98979.31;4993781;28;20049;-74
2023/01/09 10:09:25;;;;;;;4.43;1.35;;;8.10;99.90;;;6.65;100.00;98979.59;4994093;28;20394;-75
2023/01/09 10:12:38;;;;;;;6.35;1.65;;;8.20;99.90;;;6.91;100.00;98980.25;5004312;28;20045;-75
2023/01/09 10:15:29;;;;;;;8.27;1.42;;;8.20;99.90;;;8.23;92.00;98970.06;4995773;28;22088;-75
2023/01/09 10:18:25;;;;;;;4.88;1.15;;;9.10;99.90;;;8.26;91.84;98975.00;5009033;28;20397;-75
2023/01/09 10:20:56;;;;;;;5.63;1.30;;;9.70;99.90;;;7.61;95.72;98973.16;5002913;28;20444;-75
2023/01/09 10:23:54;;;;;;;5.85;1.23;;;9.50;99.90;;;6.99;100.00;98974.47;5004290;28;20038;-73
2023/01/09 10:26:49;;;;;;;4.38;1.25;;;8.80;99.90;;;6.47;100.00;98988.59;4998868;28;20046;-73
2023/01/09 10:29:50;;;;;;;5.15;1.48;;;8.30;99.90;;;6.19;100.00;98966.50;4997133;28;20414;-73
2023/01/09 10:33:13;;;;;;;3.20;1.13;;;7.90;99.90;;;6.25;100.00;98967.47;4997758;28;20069;-73
2023/01/09 10:36:09;;;;;;;5.70;1.27;;;7.80;99.90;;;8.58;94.91;98950.06;4995500;28;20068;-74
2023/01/09 10:38:42;;;;;;;2.55;0.95;;;8.80;99.90;;;10.46;74.96;98931.34;4997250;28;20034;-74
2023/01/09 10:41:33;;;;;;;4.38;1.40;;;10.70;99.90;;;11.50;66.59;98927.47;4997279;28;20089;-74
2023/01/09 10:44:16;;;;;;;4.78;1.17;;;12.20;99.90;;;11.88;61.86;98915.63;4997124;28;20046;-75
2023/01/09 10:46:53;;;;;;;3.85;0.95;;;13.30;99.90;;;12.29;59.24;98923.97;5012262;28;20034;-74
2023/01/09 10:49:21;;;;;;;3.85;0.90;;;13.20;99.90;;;13.35;54.57;98908.06;4997394;28;20396;-74
2023/01/09 10:51:51;;;;;;;3.50;0.98;;;14.20;99.90;;;13.63;52.05;98889.38;5009345;28;20481;-74
2023/01/09 10:54:22;;;;;;;4.53;0.80;;;14.30;99.60;;;14.70;48.73;98908.22;4997459;28;20034;-74